sensor_id;sensor_type;location;lat;lon;timestamp;P1;durP1;ratioP1;P2;durP2;ratioP2
20478;SDS011;10398;52.490;13.434;2022-10-13T00:00:51;8.70;;;3.20;;
20478;SDS011;10398;52.490;13.434;2022-10-13T00:03:17;13.33;;;3.80;;
20478;SDS011;10398;52.490;13.434;2022-10-13T00:05:44;11.23;;;4.90;;
20478;SDS011;10398;52.490;13.434;2022-10-13T00:08:11;8.27;;;3.50;;
20478;SDS011;10398;52.490;13.434;2022-10-13T00:10:39;11.40;;;4.03;;
20478;SDS011;10398;52.490;13.434;2022-10-13T00:13:05;8.50;;;3.80;;
20478;SDS011;10398;52.490;13.434;2022-10-13T00:15:32;12.80;;;3.90;;
20478;SDS011;10398;52.490;13.434;2022-10-13T00:18:02;17.23;;;4.23;;
20478;SDS011;10398;52.490;13.434;2022-10-13T00:20:28;15.10;;;4.53;;
20478;SDS011;10398;52.490;13.434;2022-10-13T00:22:53;11.87;;;3.77;;
20478;SDS011;10398;52.490;13.434;2022-10-13T00:25:19;13.87;;;3.87;;
20478;SDS011;10398;52.490;13.434;2022-10-13T00:27:44;16.97;;;3.73;;
20478;SDS011;10398;52.490;13.434;2022-10-13T00:30:10;14.23;;;3.53;;
20478;SDS011;10398;52.490;13.434;2022-10-13T00:32:36;11.90;;;3.43;;
20478;SDS011;10398;52.490;13.434;2022-10-13T00:35:01;11.60;;;3.40;;
20478;SDS011;10398;52.490;13.434;2022-10-13T00:37:27;12.97;;;3.90;;
20478;SDS011;10398;52.490;13.434;2022-10-13T00:39:53;10.10;;;3.50;;
20478;SDS011;10398;52.490;13.434;2022-10-13T00:42:18;6.83;;;2.87;;
20478;SDS011;10398;52.490;13.434;2022-10-13T00:45:09;13.53;;;4.17;;
20478;SDS011;10398;52.490;13.434;2022-10-13T00:47:35;17.17;;;4.23;;
20478;SDS011;10398;52.490;13.434;2022-10-13T00:50:05;10.17;;;3.80;;
20478;SDS011;10398;52.490;13.434;2022-10-13T00:52:34;11.33;;;3.67;;
20478;SDS011;10398;52.490;13.434;2022-10-13T00:55:02;9.00;;;3.37;;
20478;SDS011;10398;52.490;13.434;2022-10-13T00:57:29;11.10;;;4.13;;
20478;SDS011;10398;52.490;13.434;2022-10-13T00:59:55;15.10;;;3.90;;
20478;SDS011;10398;52.490;13.434;2022-10-13T01:02:22;7.93;;;3.57;;
20478;SDS011;10398;52.490;13.434;2022-10-13T01:04:53;11.27;;;3.63;;
20478;SDS011;10398;52.490;13.434;2022-10-13T01:07:21;16.50;;;3.97;;
20478;SDS011;10398;52.490;13.434;2022-10-13T01:09:48;14.83;;;4.70;;
20478;SDS011;10398;52.490;13.434;2022-10-13T01:20:13;11.47;;;3.87;;
20478;SDS011;10398;52.490;13.434;2022-10-13T01:22:56;12.03;;;4.20;;
20478;SDS011;10398;52.490;13.434;2022-10-13T01:25:56;10.67;;;3.97;;
20478;SDS011;10398;52.490;13.434;2022-10-13T01:31:30;12.10;;;3.67;;
20478;SDS011;10398;52.490;13.434;2022-10-13T01:36:55;12.07;;;3.80;;
20478;SDS011;10398;52.490;13.434;2022-10-13T01:42:05;11.67;;;3.43;;
20478;SDS011;10398;52.490;13.434;2022-10-13T01:44:40;10.70;;;3.33;;
20478;SDS011;10398;52.490;13.434;2022-10-13T01:47:12;8.97;;;3.77;;
20478;SDS011;10398;52.490;13.434;2022-10-13T01:49:40;16.63;;;4.40;;
20478;SDS011;10398;52.490;13.434;2022-10-13T01:52:09;13.87;;;4.40;;
20478;SDS011;10398;52.490;13.434;2022-10-13T01:54:40;12.53;;;3.83;;
20478;SDS011;10398;52.490;13.434;2022-10-13T01:57:25;8.43;;;4.07;;
20478;SDS011;10398;52.490;13.434;2022-10-13T02:00:08;10.60;;;4.00;;
20478;SDS011;10398;52.490;13.434;2022-10-13T02:05:37;8.57;;;4.07;;
20478;SDS011;10398;52.490;13.434;2022-10-13T02:13:31;12.13;;;3.60;;
20478;SDS011;10398;52.490;13.434;2022-10-13T02:16:00;12.23;;;4.10;;
20478;SDS011;10398;52.490;13.434;2022-10-13T02:18:27;9.37;;;3.90;;
20478;SDS011;10398;52.490;13.434;2022-10-13T02:20:57;11.73;;;3.70;;
20478;SDS011;10398;52.490;13.434;2022-10-13T02:23:23;11.77;;;3.60;;
20478;SDS011;10398;52.490;13.434;2022-10-13T02:25:49;7.63;;;3.40;;
20478;SDS011;10398;52.490;13.434;2022-10-13T02:28:15;11.20;;;4.00;;
20478;SDS011;10398;52.490;13.434;2022-10-13T02:30:42;12.73;;;3.87;;
20478;SDS011;10398;52.490;13.434;2022-10-13T02:33:09;9.30;;;3.57;;
20478;SDS011;10398;52.490;13.434;2022-10-13T02:35:36;8.03;;;3.47;;
20478;SDS011;10398;52.490;13.434;2022-10-13T02:38:02;10.53;;;3.83;;
20478;SDS011;10398;52.490;13.434;2022-10-13T02:40:28;11.93;;;3.57;;
20478;SDS011;10398;52.490;13.434;2022-10-13T02:42:54;12.57;;;3.57;;
20478;SDS011;10398;52.490;13.434;2022-10-13T02:45:19;12.00;;;4.23;;
20478;SDS011;10398;52.490;13.434;2022-10-13T02:47:45;8.13;;;3.00;;
20478;SDS011;10398;52.490;13.434;2022-10-13T02:50:11;6.97;;;4.17;;
20478;SDS011;10398;52.490;13.434;2022-10-13T02:52:36;7.80;;;3.60;;
20478;SDS011;10398;52.490;13.434;2022-10-13T02:55:02;6.70;;;3.13;;
20478;SDS011;10398;52.490;13.434;2022-10-13T02:57:29;9.67;;;3.97;;
20478;SDS011;10398;52.490;13.434;2022-10-13T02:59:54;9.30;;;3.70;;
20478;SDS011;10398;52.490;13.434;2022-10-13T03:02:20;8.67;;;3.70;;
20478;SDS011;10398;52.490;13.434;2022-10-13T03:04:46;11.90;;;3.80;;
20478;SDS011;10398;52.490;13.434;2022-10-13T03:07:12;9.93;;;3.90;;
20478;SDS011;10398;52.490;13.434;2022-10-13T03:09:39;12.77;;;3.53;;
20478;SDS011;10398;52.490;13.434;2022-10-13T03:12:04;9.33;;;3.87;;
20478;SDS011;10398;52.490;13.434;2022-10-13T03:14:30;10.80;;;3.50;;
20478;SDS011;10398;52.490;13.434;2022-10-13T03:16:56;10.30;;;3.80;;
20478;SDS011;10398;52.490;13.434;2022-10-13T03:19:21;14.57;;;5.73;;
20478;SDS011;10398;52.490;13.434;2022-10-13T03:21:47;9.27;;;3.83;;
20478;SDS011;10398;52.490;13.434;2022-10-13T03:24:13;13.43;;;3.60;;
20478;SDS011;10398;52.490;13.434;2022-10-13T03:26:38;9.23;;;4.07;;
20478;SDS011;10398;52.490;13.434;2022-10-13T03:29:04;13.57;;;4.33;;
20478;SDS011;10398;52.490;13.434;2022-10-13T03:31:30;9.63;;;3.90;;
20478;SDS011;10398;52.490;13.434;2022-10-13T03:33:55;7.60;;;3.47;;
20478;SDS011;10398;52.490;13.434;2022-10-13T03:36:21;12.57;;;3.63;;
20478;SDS011;10398;52.490;13.434;2022-10-13T03:38:46;6.53;;;3.47;;
20478;SDS011;10398;52.490;13.434;2022-10-13T03:41:13;10.53;;;3.70;;
20478;SDS011;10398;52.490;13.434;2022-10-13T03:43:41;11.90;;;4.03;;
20478;SDS011;10398;52.490;13.434;2022-10-13T03:46:09;10.70;;;3.90;;
20478;SDS011;10398;52.490;13.434;2022-10-13T03:48:37;19.37;;;4.43;;
20478;SDS011;10398;52.490;13.434;2022-10-13T03:51:04;10.30;;;4.40;;
20478;SDS011;10398;52.490;13.434;2022-10-13T03:53:30;13.93;;;3.80;;
20478;SDS011;10398;52.490;13.434;2022-10-13T03:55:56;9.33;;;3.90;;
20478;SDS011;10398;52.490;13.434;2022-10-13T03:58:22;9.67;;;3.80;;
20478;SDS011;10398;52.490;13.434;2022-10-13T04:00:49;9.67;;;3.73;;
20478;SDS011;10398;52.490;13.434;2022-10-13T04:03:16;24.27;;;7.80;;
20478;SDS011;10398;52.490;13.434;2022-10-13T04:05:42;12.50;;;4.07;;
20478;SDS011;10398;52.490;13.434;2022-10-13T04:08:08;11.73;;;3.70;;
20478;SDS011;10398;52.490;13.434;2022-10-13T04:10:34;10.40;;;3.77;;
20478;SDS011;10398;52.490;13.434;2022-10-13T04:12:59;9.90;;;3.47;;
20478;SDS011;10398;52.490;13.434;2022-10-13T04:15:25;7.77;;;3.50;;
20478;SDS011;10398;52.490;13.434;2022-10-13T04:17:51;10.40;;;4.03;;
20478;SDS011;10398;52.490;13.434;2022-10-13T04:20:17;10.73;;;4.07;;
20478;SDS011;10398;52.490;13.434;2022-10-13T04:22:43;7.33;;;3.50;;
20478;SDS011;10398;52.490;13.434;2022-10-13T04:25:09;10.20;;;4.37;;
20478;SDS011;10398;52.490;13.434;2022-10-13T04:27:34;9.50;;;4.53;;
20478;SDS011;10398;52.490;13.434;2022-10-13T04:30:03;9.90;;;3.73;;
20478;SDS011;10398;52.490;13.434;2022-10-13T04:32:29;12.30;;;4.43;;
20478;SDS011;10398;52.490;13.434;2022-10-13T04:34:55;13.23;;;4.10;;
20478;SDS011;10398;52.490;13.434;2022-10-13T04:37:21;7.40;;;3.67;;
20478;SDS011;10398;52.490;13.434;2022-10-13T04:39:47;19.33;;;3.83;;
20478;SDS011;10398;52.490;13.434;2022-10-13T04:42:13;9.33;;;4.13;;
20478;SDS011;10398;52.490;13.434;2022-10-13T04:44:38;16.77;;;4.17;;
20478;SDS011;10398;52.490;13.434;2022-10-13T04:47:04;8.50;;;3.63;;
20478;SDS011;10398;52.490;13.434;2022-10-13T04:49:30;14.73;;;4.40;;
20478;SDS011;10398;52.490;13.434;2022-10-13T04:51:56;10.27;;;4.27;;
20478;SDS011;10398;52.490;13.434;2022-10-13T04:54:21;13.30;;;4.50;;
20478;SDS011;10398;52.490;13.434;2022-10-13T04:56:47;8.93;;;4.13;;
20478;SDS011;10398;52.490;13.434;2022-10-13T04:59:13;15.53;;;4.60;;
20478;SDS011;10398;52.490;13.434;2022-10-13T05:01:38;15.67;;;4.93;;
20478;SDS011;10398;52.490;13.434;2022-10-13T05:04:04;14.47;;;4.77;;
20478;SDS011;10398;52.490;13.434;2022-10-13T05:06:31;10.30;;;4.23;;
20478;SDS011;10398;52.490;13.434;2022-10-13T05:08:58;16.70;;;4.90;;
20478;SDS011;10398;52.490;13.434;2022-10-13T05:11:24;18.30;;;5.23;;
20478;SDS011;10398;52.490;13.434;2022-10-13T05:13:51;11.57;;;5.00;;
20478;SDS011;10398;52.490;13.434;2022-10-13T05:16:17;12.07;;;4.90;;
20478;SDS011;10398;52.490;13.434;2022-10-13T05:18:45;15.07;;;4.90;;
20478;SDS011;10398;52.490;13.434;2022-10-13T05:21:15;13.10;;;4.67;;
20478;SDS011;10398;52.490;13.434;2022-10-13T05:23:46;12.63;;;4.63;;
20478;SDS011;10398;52.490;13.434;2022-10-13T05:26:13;8.93;;;3.83;;
20478;SDS011;10398;52.490;13.434;2022-10-13T05:28:40;14.13;;;4.43;;
20478;SDS011;10398;52.490;13.434;2022-10-13T05:31:16;12.10;;;4.53;;
20478;SDS011;10398;52.490;13.434;2022-10-13T05:33:47;10.47;;;4.10;;
20478;SDS011;10398;52.490;13.434;2022-10-13T05:36:18;18.30;;;6.63;;
20478;SDS011;10398;52.490;13.434;2022-10-13T05:38:52;17.83;;;6.40;;
20478;SDS011;10398;52.490;13.434;2022-10-13T05:41:20;17.93;;;5.90;;
20478;SDS011;10398;52.490;13.434;2022-10-13T05:43:46;18.63;;;5.37;;
20478;SDS011;10398;52.490;13.434;2022-10-13T05:46:19;12.77;;;4.40;;
20478;SDS011;10398;52.490;13.434;2022-10-13T05:48:45;12.67;;;4.97;;
20478;SDS011;10398;52.490;13.434;2022-10-13T05:51:12;12.10;;;4.80;;
20478;SDS011;10398;52.490;13.434;2022-10-13T05:53:41;15.60;;;5.53;;
20478;SDS011;10398;52.490;13.434;2022-10-13T05:56:14;17.13;;;5.10;;
20478;SDS011;10398;52.490;13.434;2022-10-13T05:58:44;10.37;;;4.87;;
20478;SDS011;10398;52.490;13.434;2022-10-13T06:01:16;12.43;;;4.80;;
20478;SDS011;10398;52.490;13.434;2022-10-13T06:03:45;12.57;;;5.00;;
20478;SDS011;10398;52.490;13.434;2022-10-13T06:06:12;12.10;;;5.27;;
20478;SDS011;10398;52.490;13.434;2022-10-13T06:08:38;17.97;;;5.70;;
20478;SDS011;10398;52.490;13.434;2022-10-13T06:11:04;12.80;;;4.90;;
20478;SDS011;10398;52.490;13.434;2022-10-13T06:13:31;15.73;;;5.40;;
20478;SDS011;10398;52.490;13.434;2022-10-13T06:15:57;11.23;;;5.07;;
20478;SDS011;10398;52.490;13.434;2022-10-13T06:18:23;13.17;;;5.40;;
20478;SDS011;10398;52.490;13.434;2022-10-13T06:20:48;19.03;;;5.43;;
20478;SDS011;10398;52.490;13.434;2022-10-13T06:23:14;14.93;;;4.93;;
20478;SDS011;10398;52.490;13.434;2022-10-13T06:25:47;14.97;;;5.40;;
20478;SDS011;10398;52.490;13.434;2022-10-13T06:28:16;19.70;;;5.37;;
20478;SDS011;10398;52.490;13.434;2022-10-13T06:30:43;15.23;;;5.53;;
20478;SDS011;10398;52.490;13.434;2022-10-13T06:33:13;13.03;;;5.70;;
20478;SDS011;10398;52.490;13.434;2022-10-13T06:35:38;17.23;;;5.40;;
20478;SDS011;10398;52.490;13.434;2022-10-13T06:38:04;15.37;;;5.13;;
20478;SDS011;10398;52.490;13.434;2022-10-13T06:40:29;12.27;;;4.97;;
20478;SDS011;10398;52.490;13.434;2022-10-13T06:42:55;18.47;;;5.63;;
20478;SDS011;10398;52.490;13.434;2022-10-13T06:45:21;10.77;;;5.43;;
20478;SDS011;10398;52.490;13.434;2022-10-13T06:47:47;16.43;;;6.27;;
20478;SDS011;10398;52.490;13.434;2022-10-13T06:50:12;18.93;;;5.67;;
20478;SDS011;10398;52.490;13.434;2022-10-13T06:52:38;17.50;;;5.97;;
20478;SDS011;10398;52.490;13.434;2022-10-13T06:55:04;14.73;;;5.70;;
20478;SDS011;10398;52.490;13.434;2022-10-13T06:57:30;16.67;;;5.90;;
20478;SDS011;10398;52.490;13.434;2022-10-13T06:59:55;13.13;;;5.90;;
20478;SDS011;10398;52.490;13.434;2022-10-13T07:02:21;14.80;;;6.27;;
20478;SDS011;10398;52.490;13.434;2022-10-13T07:04:47;11.73;;;6.03;;
20478;SDS011;10398;52.490;13.434;2022-10-13T07:07:13;14.07;;;5.67;;
20478;SDS011;10398;52.490;13.434;2022-10-13T07:09:39;16.97;;;6.53;;
20478;SDS011;10398;52.490;13.434;2022-10-13T07:12:05;18.33;;;6.07;;
20478;SDS011;10398;52.490;13.434;2022-10-13T07:14:31;13.10;;;6.10;;
20478;SDS011;10398;52.490;13.434;2022-10-13T07:16:57;17.20;;;6.27;;
20478;SDS011;10398;52.490;13.434;2022-10-13T07:19:23;17.03;;;7.17;;
20478;SDS011;10398;52.490;13.434;2022-10-13T07:21:48;16.67;;;6.70;;
20478;SDS011;10398;52.490;13.434;2022-10-13T07:24:14;15.07;;;6.90;;
20478;SDS011;10398;52.490;13.434;2022-10-13T07:26:39;19.00;;;6.53;;
20478;SDS011;10398;52.490;13.434;2022-10-13T07:29:05;22.57;;;6.47;;
20478;SDS011;10398;52.490;13.434;2022-10-13T07:31:32;16.27;;;6.70;;
20478;SDS011;10398;52.490;13.434;2022-10-13T07:33:58;18.13;;;7.33;;
20478;SDS011;10398;52.490;13.434;2022-10-13T07:36:24;20.63;;;7.43;;
20478;SDS011;10398;52.490;13.434;2022-10-13T07:38:51;19.67;;;7.10;;
20478;SDS011;10398;52.490;13.434;2022-10-13T07:41:17;16.83;;;6.70;;
20478;SDS011;10398;52.490;13.434;2022-10-13T07:43:42;10.60;;;6.30;;
20478;SDS011;10398;52.490;13.434;2022-10-13T07:46:09;16.40;;;6.83;;
20478;SDS011;10398;52.490;13.434;2022-10-13T07:48:37;18.03;;;6.70;;
20478;SDS011;10398;52.490;13.434;2022-10-13T07:51:04;21.33;;;7.33;;
20478;SDS011;10398;52.490;13.434;2022-10-13T07:53:32;18.23;;;6.70;;
20478;SDS011;10398;52.490;13.434;2022-10-13T07:55:59;15.27;;;6.53;;
20478;SDS011;10398;52.490;13.434;2022-10-13T07:58:26;19.90;;;7.03;;
20478;SDS011;10398;52.490;13.434;2022-10-13T08:00:56;18.20;;;8.37;;
20478;SDS011;10398;52.490;13.434;2022-10-13T08:03:23;13.07;;;6.70;;
20478;SDS011;10398;52.490;13.434;2022-10-13T08:05:48;17.67;;;7.93;;
20478;SDS011;10398;52.490;13.434;2022-10-13T08:08:14;18.33;;;6.60;;
20478;SDS011;10398;52.490;13.434;2022-10-13T08:10:39;19.53;;;6.90;;
20478;SDS011;10398;52.490;13.434;2022-10-13T08:13:05;17.87;;;7.13;;
20478;SDS011;10398;52.490;13.434;2022-10-13T08:15:30;17.50;;;7.97;;
20478;SDS011;10398;52.490;13.434;2022-10-13T08:17:56;33.73;;;8.47;;
20478;SDS011;10398;52.490;13.434;2022-10-13T08:20:22;23.60;;;7.60;;
20478;SDS011;10398;52.490;13.434;2022-10-13T08:22:47;14.53;;;6.77;;
20478;SDS011;10398;52.490;13.434;2022-10-13T08:25:13;17.40;;;6.97;;
20478;SDS011;10398;52.490;13.434;2022-10-13T08:27:38;19.10;;;7.20;;
20478;SDS011;10398;52.490;13.434;2022-10-13T08:30:04;16.50;;;7.33;;
20478;SDS011;10398;52.490;13.434;2022-10-13T08:32:30;16.10;;;7.40;;
20478;SDS011;10398;52.490;13.434;2022-10-13T08:34:56;15.87;;;7.07;;
20478;SDS011;10398;52.490;13.434;2022-10-13T08:37:21;15.07;;;7.00;;
20478;SDS011;10398;52.490;13.434;2022-10-13T08:39:47;17.70;;;7.63;;
20478;SDS011;10398;52.490;13.434;2022-10-13T08:42:14;14.77;;;7.20;;
20478;SDS011;10398;52.490;13.434;2022-10-13T08:44:43;22.47;;;7.37;;
20478;SDS011;10398;52.490;13.434;2022-10-13T08:49:45;15.70;;;7.00;;
20478;SDS011;10398;52.490;13.434;2022-10-13T08:52:25;21.70;;;7.93;;
20478;SDS011;10398;52.490;13.434;2022-10-13T08:54:52;13.57;;;6.70;;
20478;SDS011;10398;52.490;13.434;2022-10-13T08:57:19;15.10;;;6.57;;
20478;SDS011;10398;52.490;13.434;2022-10-13T08:59:45;20.10;;;7.30;;
20478;SDS011;10398;52.490;13.434;2022-10-13T09:02:28;19.43;;;9.53;;
20478;SDS011;10398;52.490;13.434;2022-10-13T09:04:54;19.67;;;8.10;;
20478;SDS011;10398;52.490;13.434;2022-10-13T09:07:26;17.13;;;7.67;;
20478;SDS011;10398;52.490;13.434;2022-10-13T09:09:55;21.03;;;8.77;;
20478;SDS011;10398;52.490;13.434;2022-10-13T09:12:21;20.63;;;8.37;;
20478;SDS011;10398;52.490;13.434;2022-10-13T09:15:00;17.83;;;8.30;;
20478;SDS011;10398;52.490;13.434;2022-10-13T09:17:32;17.57;;;7.70;;
20478;SDS011;10398;52.490;13.434;2022-10-13T09:20:03;18.40;;;7.70;;
20478;SDS011;10398;52.490;13.434;2022-10-13T09:22:33;17.33;;;7.00;;
20478;SDS011;10398;52.490;13.434;2022-10-13T09:27:42;19.77;;;8.80;;
20478;SDS011;10398;52.490;13.434;2022-10-13T09:30:25;18.17;;;7.77;;
20478;SDS011;10398;52.490;13.434;2022-10-13T09:35:38;16.07;;;7.03;;
20478;SDS011;10398;52.490;13.434;2022-10-13T09:38:15;17.23;;;7.00;;
20478;SDS011;10398;52.490;13.434;2022-10-13T09:40:43;13.87;;;7.40;;
20478;SDS011;10398;52.490;13.434;2022-10-13T09:45:58;21.27;;;8.00;;
20478;SDS011;10398;52.490;13.434;2022-10-13T09:48:26;18.63;;;7.57;;
20478;SDS011;10398;52.490;13.434;2022-10-13T09:50:57;17.30;;;8.43;;
20478;SDS011;10398;52.490;13.434;2022-10-13T09:53:33;20.67;;;7.70;;
20478;SDS011;10398;52.490;13.434;2022-10-13T09:56:18;17.73;;;8.43;;
20478;SDS011;10398;52.490;13.434;2022-10-13T10:01:46;17.63;;;7.73;;
20478;SDS011;10398;52.490;13.434;2022-10-13T10:04:15;19.57;;;8.00;;
20478;SDS011;10398;52.490;13.434;2022-10-13T10:06:45;17.77;;;7.60;;
20478;SDS011;10398;52.490;13.434;2022-10-13T10:11:59;19.60;;;8.20;;
20478;SDS011;10398;52.490;13.434;2022-10-13T10:14:27;20.43;;;9.17;;
20478;SDS011;10398;52.490;13.434;2022-10-13T10:17:00;16.77;;;8.53;;
20478;SDS011;10398;52.490;13.434;2022-10-13T10:22:27;19.07;;;8.67;;
20478;SDS011;10398;52.490;13.434;2022-10-13T10:25:40;16.70;;;8.50;;
20478;SDS011;10398;52.490;13.434;2022-10-13T10:28:46;18.83;;;8.17;;
20478;SDS011;10398;52.490;13.434;2022-10-13T10:31:22;20.53;;;9.90;;
20478;SDS011;10398;52.490;13.434;2022-10-13T10:39:47;16.83;;;8.00;;
20478;SDS011;10398;52.490;13.434;2022-10-13T10:44:48;18.20;;;8.60;;
20478;SDS011;10398;52.490;13.434;2022-10-13T10:47:23;18.43;;;8.93;;
20478;SDS011;10398;52.490;13.434;2022-10-13T10:49:52;16.60;;;8.07;;
20478;SDS011;10398;52.490;13.434;2022-10-13T10:52:26;18.73;;;8.67;;
20478;SDS011;10398;52.490;13.434;2022-10-13T10:55:02;16.77;;;8.90;;
20478;SDS011;10398;52.490;13.434;2022-10-13T10:57:51;19.47;;;8.93;;
20478;SDS011;10398;52.490;13.434;2022-10-13T11:00:18;20.17;;;7.67;;
20478;SDS011;10398;52.490;13.434;2022-10-13T11:05:17;19.27;;;8.80;;
20478;SDS011;10398;52.490;13.434;2022-10-13T11:15:43;18.20;;;9.23;;
20478;SDS011;10398;52.490;13.434;2022-10-13T11:21:17;18.77;;;8.60;;
20478;SDS011;10398;52.490;13.434;2022-10-13T11:23:44;16.53;;;7.90;;
20478;SDS011;10398;52.490;13.434;2022-10-13T11:26:17;18.20;;;8.57;;
20478;SDS011;10398;52.490;13.434;2022-10-13T11:28:55;18.20;;;8.23;;
20478;SDS011;10398;52.490;13.434;2022-10-13T11:31:29;15.40;;;7.60;;
20478;SDS011;10398;52.490;13.434;2022-10-13T11:34:30;17.70;;;8.30;;
20478;SDS011;10398;52.490;13.434;2022-10-13T11:36:57;12.20;;;7.20;;
20478;SDS011;10398;52.490;13.434;2022-10-13T11:44:53;17.07;;;7.80;;
20478;SDS011;10398;52.490;13.434;2022-10-13T11:47:32;14.50;;;7.37;;
20478;SDS011;10398;52.490;13.434;2022-10-13T11:50:27;15.10;;;7.50;;
20478;SDS011;10398;52.490;13.434;2022-10-13T11:53:17;15.57;;;7.27;;
20478;SDS011;10398;52.490;13.434;2022-10-13T11:55:53;20.63;;;7.57;;
20478;SDS011;10398;52.490;13.434;2022-10-13T11:58:24;19.77;;;7.83;;
20478;SDS011;10398;52.490;13.434;2022-10-13T12:00:56;18.87;;;7.57;;
20478;SDS011;10398;52.490;13.434;2022-10-13T12:03:36;14.52;;;6.50;;
20478;SDS011;10398;52.490;13.434;2022-10-13T12:06:15;12.60;;;7.10;;
20478;SDS011;10398;52.490;13.434;2022-10-13T12:08:46;17.07;;;7.40;;
20478;SDS011;10398;52.490;13.434;2022-10-13T12:11:23;15.07;;;6.33;;
20478;SDS011;10398;52.490;13.434;2022-10-13T12:13:52;14.20;;;6.10;;
20478;SDS011;10398;52.490;13.434;2022-10-13T12:16:18;14.00;;;6.73;;
20478;SDS011;10398;52.490;13.434;2022-10-13T12:18:45;15.57;;;6.37;;
20478;SDS011;10398;52.490;13.434;2022-10-13T12:23:39;16.50;;;6.50;;
20478;SDS011;10398;52.490;13.434;2022-10-13T12:26:05;11.33;;;6.07;;
20478;SDS011;10398;52.490;13.434;2022-10-13T12:31:24;13.87;;;5.83;;
20478;SDS011;10398;52.490;13.434;2022-10-13T12:36:54;14.73;;;6.10;;
20478;SDS011;10398;52.490;13.434;2022-10-13T12:39:35;10.90;;;5.67;;
20478;SDS011;10398;52.490;13.434;2022-10-13T12:42:02;13.93;;;5.40;;
20478;SDS011;10398;52.490;13.434;2022-10-13T12:44:31;9.70;;;6.35;;
20478;SDS011;10398;52.490;13.434;2022-10-13T12:46:58;12.03;;;5.43;;
20478;SDS011;10398;52.490;13.434;2022-10-13T12:54:29;9.67;;;5.47;;
20478;SDS011;10398;52.490;13.434;2022-10-13T12:56:59;10.77;;;4.63;;
20478;SDS011;10398;52.490;13.434;2022-10-13T12:59:29;11.97;;;5.87;;
20478;SDS011;10398;52.490;13.434;2022-10-13T13:01:57;15.70;;;5.23;;
20478;SDS011;10398;52.490;13.434;2022-10-13T13:04:29;17.00;;;6.47;;
20478;SDS011;10398;52.490;13.434;2022-10-13T13:07:03;13.17;;;5.53;;
20478;SDS011;10398;52.490;13.434;2022-10-13T13:09:31;17.07;;;5.67;;
20478;SDS011;10398;52.490;13.434;2022-10-13T13:14:39;11.17;;;5.60;;
20478;SDS011;10398;52.490;13.434;2022-10-13T13:17:28;11.67;;;5.23;;
20478;SDS011;10398;52.490;13.434;2022-10-13T13:19:54;11.23;;;4.67;;
20478;SDS011;10398;52.490;13.434;2022-10-13T13:22:21;12.83;;;5.47;;
20478;SDS011;10398;52.490;13.434;2022-10-13T13:24:48;12.00;;;4.90;;
20478;SDS011;10398;52.490;13.434;2022-10-13T13:27:35;14.17;;;5.80;;
20478;SDS011;10398;52.490;13.434;2022-10-13T13:30:03;13.10;;;5.50;;
20478;SDS011;10398;52.490;13.434;2022-10-13T13:32:34;13.97;;;5.23;;
20478;SDS011;10398;52.490;13.434;2022-10-13T13:34:59;11.00;;;5.00;;
20478;SDS011;10398;52.490;13.434;2022-10-13T13:37:29;10.17;;;5.20;;
20478;SDS011;10398;52.490;13.434;2022-10-13T13:39:57;14.67;;;5.77;;
20478;SDS011;10398;52.490;13.434;2022-10-13T13:42:23;13.63;;;6.37;;
20478;SDS011;10398;52.490;13.434;2022-10-13T13:44:51;16.37;;;6.77;;
20478;SDS011;10398;52.490;13.434;2022-10-13T13:47:18;12.10;;;5.93;;
20478;SDS011;10398;52.490;13.434;2022-10-13T13:49:45;15.13;;;5.97;;
20478;SDS011;10398;52.490;13.434;2022-10-13T13:52:12;15.57;;;6.40;;
20478;SDS011;10398;52.490;13.434;2022-10-13T13:54:38;14.37;;;5.90;;
20478;SDS011;10398;52.490;13.434;2022-10-13T13:57:04;12.63;;;5.60;;
20478;SDS011;10398;52.490;13.434;2022-10-13T13:59:29;14.03;;;6.43;;
20478;SDS011;10398;52.490;13.434;2022-10-13T14:01:55;14.50;;;6.87;;
20478;SDS011;10398;52.490;13.434;2022-10-13T14:04:21;17.83;;;7.43;;
20478;SDS011;10398;52.490;13.434;2022-10-13T14:06:46;19.03;;;8.27;;
20478;SDS011;10398;52.490;13.434;2022-10-13T14:09:12;16.80;;;7.27;;
20478;SDS011;10398;52.490;13.434;2022-10-13T14:11:37;13.73;;;6.70;;
20478;SDS011;10398;52.490;13.434;2022-10-13T14:14:03;16.47;;;6.97;;
20478;SDS011;10398;52.490;13.434;2022-10-13T14:16:28;15.33;;;6.13;;
20478;SDS011;10398;52.490;13.434;2022-10-13T14:18:57;15.70;;;7.65;;
20478;SDS011;10398;52.490;13.434;2022-10-13T14:21:23;16.77;;;6.93;;
20478;SDS011;10398;52.490;13.434;2022-10-13T14:23:48;12.30;;;5.60;;
20478;SDS011;10398;52.490;13.434;2022-10-13T14:26:14;12.60;;;6.20;;
20478;SDS011;10398;52.490;13.434;2022-10-13T14:28:40;16.60;;;6.73;;
20478;SDS011;10398;52.490;13.434;2022-10-13T14:31:06;11.47;;;5.80;;
20478;SDS011;10398;52.490;13.434;2022-10-13T14:33:32;13.77;;;5.97;;
20478;SDS011;10398;52.490;13.434;2022-10-13T14:35:58;13.53;;;6.27;;
20478;SDS011;10398;52.490;13.434;2022-10-13T14:38:25;16.20;;;5.87;;
20478;SDS011;10398;52.490;13.434;2022-10-13T14:40:51;13.53;;;6.17;;
20478;SDS011;10398;52.490;13.434;2022-10-13T14:43:17;14.20;;;5.67;;
20478;SDS011;10398;52.490;13.434;2022-10-13T14:45:42;13.97;;;6.47;;
20478;SDS011;10398;52.490;13.434;2022-10-13T14:48:08;12.02;;;5.63;;
20478;SDS011;10398;52.490;13.434;2022-10-13T14:50:36;15.20;;;7.03;;
20478;SDS011;10398;52.490;13.434;2022-10-13T14:53:02;12.80;;;5.90;;
20478;SDS011;10398;52.490;13.434;2022-10-13T14:55:27;11.23;;;5.97;;
20478;SDS011;10398;52.490;13.434;2022-10-13T14:57:53;14.63;;;6.47;;
20478;SDS011;10398;52.490;13.434;2022-10-13T15:00:18;15.03;;;5.70;;
20478;SDS011;10398;52.490;13.434;2022-10-13T15:02:44;12.87;;;6.37;;
20478;SDS011;10398;52.490;13.434;2022-10-13T15:05:09;14.07;;;6.70;;
20478;SDS011;10398;52.490;13.434;2022-10-13T15:07:35;15.73;;;6.50;;
20478;SDS011;10398;52.490;13.434;2022-10-13T15:10:00;13.20;;;6.63;;
20478;SDS011;10398;52.490;13.434;2022-10-13T15:12:26;13.37;;;6.40;;
20478;SDS011;10398;52.490;13.434;2022-10-13T15:14:52;14.67;;;5.97;;
20478;SDS011;10398;52.490;13.434;2022-10-13T15:17:17;15.97;;;6.50;;
20478;SDS011;10398;52.490;13.434;2022-10-13T15:19:43;15.00;;;6.43;;
20478;SDS011;10398;52.490;13.434;2022-10-13T15:22:08;14.40;;;6.40;;
20478;SDS011;10398;52.490;13.434;2022-10-13T15:24:34;12.77;;;6.20;;
20478;SDS011;10398;52.490;13.434;2022-10-13T15:26:59;15.70;;;6.83;;
20478;SDS011;10398;52.490;13.434;2022-10-13T15:29:25;15.83;;;7.10;;
20478;SDS011;10398;52.490;13.434;2022-10-13T15:31:51;15.43;;;6.80;;
20478;SDS011;10398;52.490;13.434;2022-10-13T15:34:16;16.30;;;7.50;;
20478;SDS011;10398;52.490;13.434;2022-10-13T15:36:42;11.40;;;5.90;;
20478;SDS011;10398;52.490;13.434;2022-10-13T15:39:08;18.77;;;6.57;;
20478;SDS011;10398;52.490;13.434;2022-10-13T15:41:34;17.27;;;7.80;;
20478;SDS011;10398;52.490;13.434;2022-10-13T15:44:00;17.13;;;7.03;;
20478;SDS011;10398;52.490;13.434;2022-10-13T15:46:26;17.13;;;7.23;;
20478;SDS011;10398;52.490;13.434;2022-10-13T15:48:53;14.60;;;6.90;;
20478;SDS011;10398;52.490;13.434;2022-10-13T15:51:20;16.17;;;7.23;;
20478;SDS011;10398;52.490;13.434;2022-10-13T15:53:48;18.23;;;7.50;;
20478;SDS011;10398;52.490;13.434;2022-10-13T15:56:14;21.03;;;8.00;;
20478;SDS011;10398;52.490;13.434;2022-10-13T15:58:40;17.10;;;8.30;;